Terminal Aerodrome Forecast
Issued by NWS Twin Cities, MN

Home | Current Version | Previous Version | Graphics & Text | Print | Product List | Glossary On
Versions: 1 2 3 4 5 6 7 8 9 10 11 12 13 14 15 16 17 18 19 20 21 22 23 24 25 26
000
FTUS43 KMPX 130200 AAA
TAFMSP
TAF AMD
KMSP 130253Z 1303/1406 VRB03KT P6SM SKC
     FM131200 23004KT P6SM SKC
     FM131700 19011G19KT P6SM FEW200
     FM140100 16006KT P6SM SCT200=

USA.gov is the U.S. government's official web portal to all federal, state and local government web resources and services.